Gunnison, UT

10:52 PM MST on January 29, 2015 (GMT -0700)
APRSWXNET Centerfield UT US | Change Station
CLOSE
Current Station
Personal Weather Station
Location: Gunnison, UT
Elevation: 5098 ft
Nearby Weather Stations

Elev 5098 ft 39.14 °N, 111.82 °W | Updated 49 minutes ago

Overcast
Overcast
43 °F
Feels Like 43 °F
N
0
Wind Variable Wind from NE
Gusts 0.0 mph

Today
High -- | Low -- °F
--% Chance of Precip.
Yesterday
High -- | Low -- °F
Precip. -- in
7:36 AM 5:44 PM
Waxing Gibbous, 80% visible
Pressure 30.30 in
Visibility 10.0 miles
Clouds Few 800 ft
Mostly Cloudy 1300 ft
Overcast 3700 ft
Windchill 43 °F
Dew Point 37 °F
Humidity 80%
Rainfall 0.00 in
Snow Depth Not available.
UV 0 out of 12
Pollen 1.00 out of 12
Air Quality Not available.
Flu Activity Not available.
SPECI KPUC 300523Z AUTO 00000KT 10SM -RA FEW008 BKN013 OVC037 04/02 A3030

More Conditions Fewer Conditions

Pressure 30.30 in
Visibility 10.0 miles
Clouds Few 800 ft
Mostly Cloudy 1300 ft
Overcast 3700 ft
Windchill 43 °F
Dew Point 37 °F
Humidity 80%
Rainfall 0.00 in
Snow Depth Not available.
UV 0 out of 12
Pollen 1.00 out of 12
Air Quality Not available.
Flu Activity Not available.
SPECI KPUC 300523Z AUTO 00000KT 10SM -RA FEW008 BKN013 OVC037 04/02 A3030

More Conditions Fewer Conditions

10-Day Weather Forecast

Almanac

Astronomy

Jan. 29, 2015 Rise Set
Actual Time
Civil Twilight
Nautical Twilight
Astronomical Twilight
Moon
Length of Visible Light
Length of Day
Tomorrow will be .
, % of the Moon is Illuminated

Today's Extremes

State Highs State Lows

Community

WunderPhotos

Upload Photos

1,791,722 photos uploaded!

WunderBlogs® & News

Nearby

Air Quality

  Air Quality AQ Index Pollutant
Not available.

Snow Depth

Station Depth Elevation

Earthquake Activity

City Distance Mag. Time & Date
Minimum magnitude displayed is 2.5.

Coastal Water Temperatures

Place Temperature

Nearby Weather Stations